createdAt,value
2023-04-16T00:01:37.135Z,6.76
2023-04-16T00:04:03.857Z,6.77
2023-04-16T00:06:30.709Z,6.80
2023-04-16T00:08:57.186Z,6.73
2023-04-16T00:11:23.987Z,6.77
2023-04-16T00:13:50.458Z,6.76
2023-04-16T00:16:17.016Z,6.76
2023-04-16T00:18:43.503Z,6.74
2023-04-16T00:21:09.968Z,6.75
2023-04-16T00:23:36.527Z,6.77
2023-04-16T00:26:02.959Z,6.75
2023-04-16T00:28:29.551Z,6.78
2023-04-16T00:30:56.071Z,6.75
2023-04-16T00:33:24.070Z,6.76
2023-04-16T00:35:51.158Z,6.80
2023-04-16T00:38:17.716Z,6.77
2023-04-16T00:40:44.262Z,6.80
2023-04-16T00:43:10.835Z,6.78
2023-04-16T00:45:37.320Z,6.77
2023-04-16T00:48:04.479Z,6.80
2023-04-16T00:50:31.040Z,6.78
2023-04-16T00:52:58.048Z,6.78
2023-04-16T00:55:24.787Z,6.78
2023-04-16T00:57:51.198Z,6.80
2023-04-16T01:00:17.652Z,6.81
2023-04-16T01:02:44.394Z,6.81
2023-04-16T01:05:11.350Z,6.85
2023-04-16T01:07:37.806Z,6.81
2023-04-16T01:10:04.593Z,6.82
2023-04-16T01:12:31.162Z,6.84
2023-04-16T01:14:57.707Z,6.84
2023-04-16T01:17:24.218Z,6.80
2023-04-16T01:19:50.725Z,6.83
2023-04-16T01:22:17.233Z,6.80
2023-04-16T01:24:44.854Z,6.81
2023-04-16T01:27:11.379Z,6.81
2023-04-16T01:29:37.887Z,6.81
2023-04-16T01:32:04.326Z,6.82
2023-04-16T01:34:30.773Z,6.82
2023-04-16T01:36:57.270Z,6.81
2023-04-16T01:39:23.801Z,6.82
2023-04-16T01:41:50.300Z,6.82
2023-04-16T01:44:16.794Z,6.85
2023-04-16T01:46:44.149Z,6.85
2023-04-16T01:49:10.878Z,6.87
2023-04-16T01:51:37.629Z,6.87
2023-04-16T01:54:04.201Z,6.87
2023-04-16T01:56:30.651Z,6.86
2023-04-16T01:58:57.123Z,6.89
2023-04-16T02:01:24.233Z,6.90
2023-04-16T02:03:52.237Z,6.86
2023-04-16T02:06:18.851Z,6.91
2023-04-16T02:08:45.312Z,6.91
2023-04-16T02:11:11.772Z,6.96
2023-04-16T02:13:38.298Z,6.99
2023-04-16T02:16:05.493Z,6.99
2023-04-16T02:18:32.082Z,7.01
2023-04-16T02:21:02.248Z,7.03
2023-04-16T02:23:28.732Z,7.03
2023-04-16T02:25:55.249Z,7.03
2023-04-16T02:28:21.678Z,7.07
2023-04-16T02:30:48.162Z,7.07
2023-04-16T02:33:14.635Z,7.04
2023-04-16T02:35:41.386Z,7.08
2023-04-16T02:38:08.032Z,7.09
2023-04-16T02:40:34.789Z,7.09
2023-04-16T02:43:01.268Z,7.06
2023-04-16T02:45:27.912Z,7.05
2023-04-16T02:47:54.428Z,7.07
2023-04-16T02:50:21.129Z,7.11
2023-04-16T02:52:47.662Z,7.12
2023-04-16T02:55:14.268Z,7.12
2023-04-16T02:57:42.310Z,7.15
2023-04-16T03:00:09.240Z,7.13
2023-04-16T03:02:36.092Z,7.15
2023-04-16T03:05:03.570Z,7.16
2023-04-16T03:07:30.177Z,7.20
2023-04-16T03:09:56.869Z,7.19
2023-04-16T03:12:23.468Z,7.20
2023-04-16T03:14:52.379Z,7.17
2023-04-16T03:17:18.831Z,7.15
2023-04-16T03:19:45.401Z,7.17
2023-04-16T03:22:11.806Z,7.18
2023-04-16T03:24:38.273Z,7.19
2023-04-16T03:27:04.751Z,7.20
2023-04-16T03:29:31.196Z,7.19
2023-04-16T03:31:57.723Z,7.20
2023-04-16T03:34:24.364Z,7.21
2023-04-16T03:36:50.935Z,7.20
2023-04-16T03:39:17.388Z,7.22
2023-04-16T03:41:43.896Z,7.19
2023-04-16T03:44:10.617Z,7.17
2023-04-16T03:46:37.073Z,7.22
2023-04-16T03:49:03.619Z,7.21
2023-04-16T03:51:30.052Z,7.15
2023-04-16T03:53:56.505Z,7.22
2023-04-16T03:56:22.998Z,7.20
2023-04-16T03:58:49.439Z,7.15
2023-04-16T04:01:15.898Z,7.20
2023-04-16T04:03:42.408Z,7.19
2023-04-16T04:06:09.413Z,7.24
2023-04-16T04:08:35.848Z,7.23
2023-04-16T04:11:02.310Z,7.25
2023-04-16T04:13:28.807Z,7.24
2023-04-16T04:15:55.412Z,7.26
2023-04-16T04:18:21.935Z,7.26
2023-04-16T04:20:48.514Z,7.28
2023-04-16T04:23:15.001Z,7.27
2023-04-16T04:25:41.492Z,7.29
2023-04-16T04:28:07.960Z,7.27
2023-04-16T04:30:35.864Z,7.28
2023-04-16T04:33:02.495Z,7.26
2023-04-16T04:35:29.148Z,7.29
2023-04-16T04:37:55.733Z,7.28
2023-04-16T04:40:22.401Z,7.26
2023-04-16T04:42:49.100Z,7.28
2023-04-16T04:45:16.059Z,7.29
2023-04-16T04:47:42.570Z,7.31
2023-04-16T04:50:09.635Z,7.30
2023-04-16T04:52:36.258Z,7.30
2023-04-16T04:55:02.764Z,7.29
2023-04-16T04:57:29.192Z,7.30
2023-04-16T04:59:55.883Z,7.32
2023-04-16T05:02:22.431Z,7.32
2023-04-16T05:04:48.944Z,7.32
2023-04-16T05:07:15.838Z,7.32
2023-04-16T05:09:42.311Z,7.34
2023-04-16T05:12:08.818Z,7.32
2023-04-16T05:14:36.179Z,7.33
2023-04-16T05:17:02.718Z,7.33
2023-04-16T05:19:29.372Z,7.34
2023-04-16T05:21:56.205Z,7.38
2023-04-16T05:24:23.234Z,7.38
2023-04-16T05:26:49.841Z,7.38
2023-04-16T05:29:16.299Z,7.40
2023-04-16T05:31:42.858Z,7.40
2023-04-16T05:34:09.322Z,7.42
2023-04-16T05:36:35.795Z,7.42
2023-04-16T05:39:02.270Z,7.43
2023-04-16T05:41:29.250Z,7.43
2023-04-16T05:43:55.717Z,7.42
2023-04-16T05:46:22.205Z,7.42
2023-04-16T05:48:48.692Z,7.44
2023-04-16T05:51:15.260Z,7.46
2023-04-16T05:53:42.030Z,7.42
2023-04-16T05:56:08.709Z,7.45
2023-04-16T05:58:35.230Z,7.47
2023-04-16T06:01:01.827Z,7.48
2023-04-16T06:03:28.431Z,7.50
2023-04-16T06:05:55.078Z,7.50
2023-04-16T06:08:21.615Z,7.52
2023-04-16T06:10:48.168Z,7.53
2023-04-16T06:13:14.998Z,7.56
2023-04-16T06:15:41.807Z,7.56
2023-04-16T06:18:08.348Z,7.60
2023-04-16T06:20:34.916Z,7.61
2023-04-16T06:23:01.346Z,7.63
2023-04-16T06:25:27.821Z,7.66
2023-04-16T06:27:54.282Z,7.67
2023-04-16T06:30:20.956Z,7.70
2023-04-16T06:32:48.034Z,7.74
2023-04-16T06:35:14.704Z,7.77
2023-04-16T06:37:41.500Z,7.78
2023-04-16T06:40:08.515Z,7.79
2023-04-16T06:42:34.977Z,7.83
2023-04-16T06:45:01.630Z,7.88
2023-04-16T06:47:28.143Z,7.88
2023-04-16T06:49:54.665Z,7.90
2023-04-16T06:52:21.160Z,7.95
2023-04-16T06:54:48.288Z,7.91
2023-04-16T06:57:14.801Z,7.93
2023-04-16T06:59:41.253Z,7.97
2023-04-16T07:02:10.526Z,7.95
2023-04-16T07:04:37.263Z,8.04
2023-04-16T07:07:03.960Z,8.08
2023-04-16T07:09:30.549Z,8.13
2023-04-16T07:11:57.030Z,8.19
2023-04-16T07:14:23.540Z,8.21
2023-04-16T07:16:50.182Z,8.22
2023-04-16T07:19:16.727Z,8.24
2023-04-16T07:21:43.773Z,8.29
2023-04-16T07:24:11.637Z,8.37
2023-04-16T07:26:38.107Z,8.41
2023-04-16T07:29:04.598Z,8.46
2023-04-16T07:31:31.323Z,8.51
2023-04-16T07:33:58.344Z,8.52
2023-04-16T07:36:25.018Z,8.60
2023-04-16T07:38:51.476Z,8.63
2023-04-16T07:41:18.031Z,8.65
2023-04-16T07:43:44.512Z,8.67
2023-04-16T07:46:11.016Z,8.67
2023-04-16T07:48:37.514Z,8.70
2023-04-16T07:51:04.028Z,8.72
2023-04-16T07:53:30.725Z,8.73
2023-04-16T07:55:57.213Z,8.78
2023-04-16T07:58:23.645Z,8.84
2023-04-16T08:00:51.066Z,8.90
2023-04-16T08:03:18.280Z,8.99
2023-04-16T08:05:44.972Z,8.97
2023-04-16T08:08:11.514Z,9.09
2023-04-16T08:10:38.886Z,9.13
2023-04-16T08:13:05.416Z,9.14
2023-04-16T08:15:32.476Z,9.18
2023-04-16T08:17:59.658Z,9.18
2023-04-16T08:20:26.290Z,9.13
2023-04-16T08:22:54.210Z,9.16
2023-04-16T08:25:20.884Z,9.16
2023-04-16T08:27:47.450Z,9.23
2023-04-16T08:30:15.172Z,9.31
2023-04-16T08:32:41.728Z,9.44
2023-04-16T08:35:08.836Z,9.50
2023-04-16T08:37:35.422Z,9.63
2023-04-16T08:40:02.532Z,9.76
2023-04-16T08:42:34.034Z,9.88
2023-04-16T08:45:06.875Z,9.92
2023-04-16T08:47:35.147Z,9.96
2023-04-16T08:50:04.191Z,9.90
2023-04-16T08:52:31.994Z,9.92
2023-04-16T08:54:58.606Z,9.88
2023-04-16T08:57:30.507Z,9.94
2023-04-16T08:59:58.216Z,10.00
2023-04-16T09:02:26.440Z,10.06
2023-04-16T09:04:53.955Z,10.02
2023-04-16T09:07:21.885Z,9.99
2023-04-16T09:09:49.960Z,9.96
2023-04-16T09:12:17.563Z,9.94
2023-04-16T09:14:49.449Z,9.89
2023-04-16T09:17:16.852Z,9.95
2023-04-16T09:19:43.446Z,9.94
2023-04-16T09:22:10.009Z,9.91
2023-04-16T09:24:38.452Z,9.95
2023-04-16T09:27:05.466Z,9.96
2023-04-16T09:29:39.942Z,10.03
2023-04-16T09:32:09.086Z,10.08
2023-04-16T09:34:55.592Z,10.14
2023-04-16T09:37:22.261Z,10.15
2023-04-16T09:39:58.944Z,10.06
2023-04-16T09:42:32.943Z,10.20
2023-04-16T09:45:01.996Z,10.23
2023-04-16T09:47:55.174Z,10.26
2023-04-16T09:50:21.677Z,10.36
2023-04-16T09:52:51.178Z,10.40
2023-04-16T09:55:23.705Z,10.53
2023-04-16T09:57:58.835Z,10.61
2023-04-16T10:00:25.519Z,10.72
2023-04-16T10:03:03.769Z,10.78
2023-04-16T10:05:30.406Z,10.84
2023-04-16T10:08:00.550Z,10.97
2023-04-16T10:10:27.068Z,11.03
2023-04-16T10:12:55.311Z,11.15
2023-04-16T10:15:22.468Z,11.26
2023-04-16T10:17:50.195Z,11.30
2023-04-16T10:20:18.388Z,11.33
2023-04-16T10:22:45.511Z,11.29
2023-04-16T10:25:12.808Z,11.36
2023-04-16T10:27:40.682Z,11.40
2023-04-16T10:30:09.357Z,11.57
2023-04-16T10:32:36.875Z,11.58
2023-04-16T10:35:03.662Z,11.75
2023-04-16T10:37:31.362Z,11.84
2023-04-16T10:40:00.844Z,11.81
2023-04-16T10:42:27.548Z,11.84
2023-04-16T10:44:54.055Z,11.66
2023-04-16T10:47:24.952Z,11.55
2023-04-16T10:49:51.926Z,11.62
2023-04-16T10:52:18.495Z,11.71
2023-04-16T10:54:46.772Z,11.83
2023-04-16T10:57:17.875Z,11.95
2023-04-16T10:59:45.411Z,12.07
2023-04-16T11:02:17.533Z,12.19
2023-04-16T11:04:48.552Z,12.36
2023-04-16T11:07:17.580Z,12.34
2023-04-16T11:09:47.122Z,12.36
2023-04-16T11:12:16.925Z,12.46
2023-04-16T11:14:43.579Z,12.48
2023-04-16T11:17:10.253Z,12.57
2023-04-16T11:19:38.056Z,12.66
2023-04-16T11:22:05.443Z,12.81
2023-04-16T11:24:32.933Z,12.85
2023-04-16T11:26:59.873Z,13.02
2023-04-16T11:29:26.337Z,13.08
2023-04-16T11:31:54.532Z,13.07
2023-04-16T11:34:21.431Z,13.02
2023-04-16T11:36:49.395Z,13.04
2023-04-16T11:39:16.028Z,13.17
2023-04-16T11:41:47.996Z,13.13
2023-04-16T11:44:25.408Z,13.04
2023-04-16T11:46:53.225Z,13.01
2023-04-16T11:49:32.496Z,12.96
2023-04-16T11:51:59.151Z,12.91
2023-04-16T11:54:26.024Z,12.82
2023-04-16T11:56:53.546Z,12.82
2023-04-16T11:59:23.588Z,12.78
2023-04-16T12:01:51.809Z,12.65
2023-04-16T12:04:29.416Z,12.66
2023-04-16T12:07:05.106Z,12.64
2023-04-16T12:09:31.572Z,12.62
2023-04-16T12:11:58.041Z,12.54
2023-04-16T12:14:24.491Z,12.52
2023-04-16T12:16:51.081Z,12.51
2023-04-16T12:19:18.288Z,12.49
2023-04-16T12:21:47.074Z,12.46
2023-04-16T12:24:15.698Z,12.44
2023-04-16T12:26:48.661Z,12.44
2023-04-16T12:29:16.442Z,12.43
2023-04-16T12:31:43.290Z,12.38
2023-04-16T12:34:12.888Z,12.36
2023-04-16T12:36:39.678Z,12.43
2023-04-16T12:39:06.286Z,12.46
2023-04-16T12:41:36.339Z,12.59
2023-04-16T12:44:14.006Z,12.68
2023-04-16T12:46:42.039Z,12.72
2023-04-16T12:49:10.164Z,12.82
2023-04-16T12:51:38.406Z,12.87
2023-04-16T12:54:07.319Z,12.89
2023-04-16T12:56:34.265Z,12.84
2023-04-16T12:59:00.759Z,12.88
2023-04-16T13:01:27.300Z,12.97
2023-04-16T13:03:54.166Z,13.08
2023-04-16T13:06:21.084Z,13.10
2023-04-16T13:08:47.627Z,13.28
2023-04-16T13:11:14.379Z,13.49
2023-04-16T13:13:40.948Z,13.69
2023-04-16T13:16:08.556Z,13.85
2023-04-16T13:18:40.140Z,13.90
2023-04-16T13:21:06.641Z,13.86
2023-04-16T13:23:33.228Z,13.83
2023-04-16T13:25:59.727Z,13.83
2023-04-16T13:28:26.441Z,13.79
2023-04-16T13:30:53.258Z,13.59
2023-04-16T13:33:20.906Z,13.68
2023-04-16T13:35:50.623Z,13.65
2023-04-16T13:38:17.224Z,13.67
2023-04-16T13:40:44.540Z,13.65
2023-04-16T13:43:11.458Z,13.57
2023-04-16T13:45:37.950Z,13.55
2023-04-16T13:48:04.760Z,13.46
2023-04-16T13:50:31.319Z,13.31
2023-04-16T13:52:57.889Z,13.28
2023-04-16T13:55:24.494Z,13.25
2023-04-16T13:57:52.492Z,13.19
2023-04-16T14:00:19.607Z,13.19
2023-04-16T14:02:46.192Z,13.27
2023-04-16T14:05:12.849Z,13.23
2023-04-16T14:07:39.381Z,13.31
2023-04-16T14:10:06.519Z,13.28
2023-04-16T14:12:33.177Z,13.28
2023-04-16T14:14:59.753Z,13.14
2023-04-16T14:17:26.281Z,13.21
2023-04-16T14:19:52.799Z,13.21
2023-04-16T14:22:19.355Z,13.28
2023-04-16T14:24:46.069Z,13.31
2023-04-16T14:27:12.582Z,13.29
2023-04-16T14:29:39.180Z,13.34
2023-04-16T14:32:06.736Z,13.35
2023-04-16T14:34:33.274Z,13.23
2023-04-16T14:36:59.988Z,13.32
2023-04-16T14:39:27.051Z,13.40
2023-04-16T14:41:53.627Z,13.48
2023-04-16T14:44:20.198Z,13.49
2023-04-16T14:46:46.733Z,13.56
2023-04-16T14:49:14.456Z,13.52
2023-04-16T14:51:41.820Z,13.48
2023-04-16T14:54:08.376Z,13.53
2023-04-16T14:56:34.845Z,13.53
2023-04-16T14:59:01.325Z,13.59
2023-04-16T15:01:27.906Z,13.66
2023-04-16T15:03:59.236Z,13.67
2023-04-16T15:06:28.050Z,13.68
2023-04-16T15:08:54.588Z,13.74
2023-04-16T15:11:21.255Z,13.76
2023-04-16T15:13:47.712Z,13.76
2023-04-16T15:16:14.335Z,13.81
2023-04-16T15:18:40.914Z,13.91
2023-04-16T15:21:07.400Z,14.08
2023-04-16T15:23:33.912Z,14.08
2023-04-16T15:26:00.749Z,14.18
2023-04-16T15:28:27.272Z,14.22
2023-04-16T15:30:53.835Z,14.29
2023-04-16T15:33:23.418Z,14.32
2023-04-16T15:35:51.640Z,14.34
2023-04-16T15:38:21.257Z,14.39
2023-04-16T15:40:48.044Z,14.67
2023-04-16T15:43:15.636Z,14.84
2023-04-16T15:45:42.107Z,15.00
2023-04-16T15:48:08.970Z,15.00
2023-04-16T15:50:35.815Z,15.02
2023-04-16T15:53:03.115Z,15.16
2023-04-16T15:55:29.655Z,15.13
2023-04-16T15:57:56.151Z,15.04
2023-04-16T16:00:22.978Z,14.95
2023-04-16T16:02:49.606Z,14.84
2023-04-16T16:05:16.796Z,14.83
2023-04-16T16:07:43.862Z,14.82
2023-04-16T16:10:11.183Z,14.63
2023-04-16T16:12:37.839Z,14.58
2023-04-16T16:15:05.016Z,14.54
2023-04-16T16:17:31.749Z,14.48
2023-04-16T16:19:59.108Z,14.52
2023-04-16T16:22:26.025Z,14.46
2023-04-16T16:24:56.389Z,14.50
2023-04-16T16:27:23.348Z,14.59
2023-04-16T16:29:50.124Z,14.54
2023-04-16T16:32:16.720Z,14.44
2023-04-16T16:34:43.312Z,14.38
2023-04-16T16:37:09.790Z,14.27
2023-04-16T16:39:38.474Z,14.28
2023-04-16T16:42:05.932Z,14.19
2023-04-16T16:44:32.423Z,14.08
2023-04-16T16:46:59.626Z,13.98
2023-04-16T16:49:26.142Z,13.90
2023-04-16T16:51:52.632Z,13.89
2023-04-16T16:54:19.090Z,13.81
2023-04-16T16:56:45.557Z,13.68
2023-04-16T16:59:14.927Z,13.50
2023-04-16T17:01:41.414Z,13.48
2023-04-16T17:04:08.050Z,13.31
2023-04-16T17:06:34.732Z,13.27
2023-04-16T17:09:01.248Z,13.17
2023-04-16T17:11:29.283Z,13.18
2023-04-16T17:13:55.911Z,13.14
2023-04-16T17:16:23.875Z,13.09
2023-04-16T17:18:50.422Z,13.06
2023-04-16T17:21:16.987Z,12.97
2023-04-16T17:23:43.508Z,12.90
2023-04-16T17:26:10.048Z,12.91
2023-04-16T17:28:36.568Z,12.84
2023-04-16T17:31:03.634Z,12.79
2023-04-16T17:33:30.127Z,12.70
2023-04-16T17:35:56.664Z,12.63
2023-04-16T17:38:23.179Z,12.52
2023-04-16T17:40:49.810Z,12.46
2023-04-16T17:43:16.327Z,12.38
2023-04-16T17:45:42.858Z,12.26
2023-04-16T17:48:09.528Z,12.22
2023-04-16T17:50:38.208Z,12.12
2023-04-16T17:53:05.939Z,12.09
2023-04-16T17:55:32.441Z,12.03
2023-04-16T17:58:00.350Z,11.98
2023-04-16T18:00:26.888Z,11.95
2023-04-16T18:02:54.222Z,11.91
2023-04-16T18:05:21.231Z,11.87
2023-04-16T18:07:48.295Z,11.84
2023-04-16T18:10:14.786Z,11.81
2023-04-16T18:12:41.229Z,11.81
2023-04-16T18:15:08.412Z,11.79
2023-04-16T18:17:35.205Z,11.68
2023-04-16T18:20:01.758Z,11.72
2023-04-16T18:22:28.590Z,11.64
2023-04-16T18:24:55.319Z,11.61
2023-04-16T18:27:22.001Z,11.53
2023-04-16T18:29:49.515Z,11.49
2023-04-16T18:32:16.374Z,11.35
2023-04-16T18:34:43.068Z,11.40
2023-04-16T18:37:10.461Z,11.39
2023-04-16T18:39:37.328Z,11.36
2023-04-16T18:42:03.988Z,11.30
2023-04-16T18:44:30.543Z,11.26
2023-04-16T18:46:57.114Z,11.26
2023-04-16T18:49:23.890Z,11.26
2023-04-16T18:51:50.350Z,11.26
2023-04-16T18:54:16.948Z,11.28
2023-04-16T18:56:43.411Z,11.22
2023-04-16T18:59:10.147Z,11.22
2023-04-16T19:01:36.869Z,11.19
2023-04-16T19:04:03.488Z,11.19
2023-04-16T19:06:30.082Z,11.16
2023-04-16T19:08:56.574Z,11.09
2023-04-16T19:11:23.047Z,11.04
2023-04-16T19:13:49.536Z,10.96
2023-04-16T19:16:16.903Z,11.03
2023-04-16T19:18:43.474Z,11.02
2023-04-16T19:21:10.866Z,11.00
2023-04-16T19:23:37.497Z,11.01
2023-04-16T19:26:03.995Z,11.02
2023-04-16T19:28:31.312Z,11.01
2023-04-16T19:30:57.768Z,11.02
2023-04-16T19:33:24.334Z,11.01
2023-04-16T19:35:50.899Z,10.99
2023-04-16T19:38:17.376Z,10.97
2023-04-16T19:40:45.788Z,10.90
2023-04-16T19:43:12.618Z,10.89
2023-04-16T19:45:46.525Z,10.87
2023-04-16T19:48:13.290Z,10.88
2023-04-16T19:50:41.271Z,10.85
2023-04-16T19:53:08.883Z,10.85
2023-04-16T19:55:35.470Z,10.81
2023-04-16T19:58:06.138Z,10.83
2023-04-16T20:00:37.212Z,10.74
2023-04-16T20:03:04.882Z,10.75
2023-04-16T20:05:31.391Z,10.72
2023-04-16T20:07:57.882Z,10.69
2023-04-16T20:10:24.499Z,10.67
2023-04-16T20:12:51.371Z,10.59
2023-04-16T20:15:18.608Z,10.54
2023-04-16T20:17:45.197Z,10.54
2023-04-16T20:20:12.069Z,10.51
2023-04-16T20:22:42.199Z,10.45
2023-04-16T20:25:09.283Z,10.45
2023-04-16T20:27:35.853Z,10.44
2023-04-16T20:30:02.686Z,10.40
2023-04-16T20:32:29.161Z,10.35
2023-04-16T20:34:55.690Z,10.29
2023-04-16T20:37:22.468Z,10.35
2023-04-16T20:39:50.204Z,10.30
2023-04-16T20:42:16.751Z,10.26
2023-04-16T20:44:50.190Z,10.18
2023-04-16T20:47:17.248Z,10.22
2023-04-16T20:49:47.460Z,10.20
2023-04-16T20:52:14.227Z,10.19
2023-04-16T20:54:40.906Z,10.18
2023-04-16T20:57:07.730Z,10.17
2023-04-16T20:59:34.382Z,10.13
2023-04-16T21:02:01.013Z,10.13
2023-04-16T21:04:27.605Z,10.12
2023-04-16T21:06:54.248Z,10.03
2023-04-16T21:09:20.884Z,10.04
2023-04-16T21:11:47.808Z,9.99
2023-04-16T21:14:14.578Z,10.02
2023-04-16T21:16:41.026Z,10.01
2023-04-16T21:19:08.746Z,9.97
2023-04-16T21:21:35.451Z,9.91
2023-04-16T21:24:02.170Z,9.92
2023-04-16T21:26:28.630Z,9.87
2023-04-16T21:28:55.483Z,9.86
2023-04-16T21:31:22.042Z,9.84
2023-04-16T21:33:48.583Z,9.84
2023-04-16T21:36:15.481Z,9.80
2023-04-16T21:38:41.921Z,9.79
2023-04-16T21:41:08.425Z,9.82
2023-04-16T21:43:34.882Z,9.78
2023-04-16T21:46:01.381Z,9.71
2023-04-16T21:48:28.514Z,9.71
2023-04-16T21:50:59.907Z,9.70
2023-04-16T21:53:28.075Z,9.72
2023-04-16T21:55:54.678Z,9.69
2023-04-16T21:58:21.117Z,9.67
2023-04-16T22:00:47.605Z,9.66
2023-04-16T22:03:17.459Z,9.65
2023-04-16T22:05:45.873Z,9.66
2023-04-16T22:08:24.007Z,9.60
2023-04-16T22:10:51.546Z,9.59
2023-04-16T22:13:18.182Z,9.58
2023-04-16T22:15:44.713Z,9.55
2023-04-16T22:18:11.448Z,9.54
2023-04-16T22:20:39.213Z,9.51
2023-04-16T22:23:08.543Z,9.50
2023-04-16T22:25:35.219Z,9.50
2023-04-16T22:28:01.837Z,9.49
2023-04-16T22:30:28.401Z,9.46
2023-04-16T22:32:55.091Z,9.43
2023-04-16T22:35:21.631Z,9.39
2023-04-16T22:37:48.082Z,9.41
2023-04-16T22:40:14.941Z,9.42
2023-04-16T22:42:41.536Z,9.44
2023-04-16T22:45:08.815Z,9.41
2023-04-16T22:47:35.372Z,9.41
2023-04-16T22:50:03.201Z,9.39
2023-04-16T22:52:29.680Z,9.42
2023-04-16T22:54:56.297Z,9.43
2023-04-16T22:57:25.392Z,9.44
2023-04-16T22:59:53.023Z,9.43
2023-04-16T23:02:20.807Z,9.43
2023-04-16T23:04:47.973Z,9.40
2023-04-16T23:07:15.528Z,9.41
2023-04-16T23:09:42.571Z,9.44
2023-04-16T23:12:09.183Z,9.39
2023-04-16T23:14:36.934Z,9.44
2023-04-16T23:17:03.688Z,9.44
2023-04-16T23:19:31.242Z,9.44
2023-04-16T23:21:57.954Z,9.42
2023-04-16T23:24:24.525Z,9.42
2023-04-16T23:26:52.451Z,9.44
2023-04-16T23:29:19.636Z,9.42
2023-04-16T23:31:46.241Z,9.44
2023-04-16T23:34:12.714Z,9.50
2023-04-16T23:36:39.340Z,9.50
2023-04-16T23:39:05.809Z,9.53
2023-04-16T23:41:32.421Z,9.52
2023-04-16T23:43:59.025Z,9.54
2023-04-16T23:46:26.150Z,9.54
2023-04-16T23:48:52.775Z,9.54
2023-04-16T23:51:19.235Z,9.55
2023-04-16T23:53:45.686Z,9.53
2023-04-16T23:56:12.224Z,9.57
2023-04-16T23:58:38.668Z,9.57
